Time;durP1;ratioP1;P1;durP2;ratioP2;P2;SDS_P1;SDS_P2;PMS_P1;PMS_P2;Temp;Humidity;BMP_temperature;BMP_pressure;BME280_temperature;BME280_humidity;BME280_pressure;Samples;Min_cycle;Max_cycle;Signal;HPM_P1;HPM_P2
2022/06/05 00:02:07;;;;;;;8.45;4.57;;;;;;;;;;6209829;23;20027;-65
2022/06/05 00:04:37;;;;;;;8.65;5.85;;;;;;;;;;6129631;23;20119;-65
2022/06/05 00:07:04;;;;;;;10.30;5.45;;;;;;;;;;6179166;23;20025;-65
2022/06/05 00:09:46;;;;;;;7.43;4.97;;;;;;;;;;6200833;23;20103;-65
2022/06/05 00:12:18;;;;;;;9.52;5.13;;;;;;;;;;6200317;23;20104;-65
2022/06/05 00:14:45;;;;;;;7.60;5.38;;;;;;;;;;6210316;23;20446;-65
2022/06/05 00:17:13;;;;;;;8.73;4.88;;;;;;;;;;6202254;23;20411;-65
2022/06/05 00:19:41;;;;;;;8.20;5.15;;;;;;;;;;6209577;23;20052;-65
2022/06/05 00:22:07;;;;;;;;;;;;;;;;;;6197751;22;20131;-66
2022/06/05 00:24:34;;;;;;;9.27;5.25;;;;;;;;;;6204537;23;19951;-65
2022/06/05 00:27:06;;;;;;;10.82;5.65;;;;;;;;;;6210293;23;20120;-65
2022/06/05 00:29:46;;;;;;;9.18;6.03;;;;;;;;;;6203097;23;20024;-65
2022/06/05 00:32:18;;;;;;;9.15;5.68;;;;;;;;;;6209055;23;20031;-65
2022/06/05 00:34:44;;;;;;;8.82;5.20;;;;;;;;;;6201555;23;20048;-64
2022/06/05 00:37:19;;;;;;;11.75;6.20;;;;;;;;;;6202472;23;20416;-65
2022/06/05 00:39:55;;;;;;;10.32;5.47;;;;;;;;;;6203233;23;20508;-64
2022/06/05 00:42:24;;;;;;;7.55;4.65;;;;;;;;;;6212698;23;20421;-65
2022/06/05 00:44:51;;;;;;;11.65;6.35;;;;;;;;;;6205506;23;20028;-65
2022/06/05 00:47:19;;;;;;;9.93;5.68;;;;;;;;;;6211883;23;20024;-65
2022/06/05 00:49:49;;;;;;;11.10;5.60;;;;;;;;;;6206894;23;20107;-66
2022/06/05 00:52:17;;;;;;;8.65;5.57;;;;;;;;;;6196989;23;20024;-65
2022/06/05 00:54:43;;;;;;;9.18;5.28;;;;;;;;;;6212460;23;20394;-65
2022/06/05 00:57:11;;;;;;;9.52;5.50;;;;;;;;;;6204834;23;20469;-65
2022/06/05 00:59:38;;;;;;;10.38;5.70;;;;;;;;;;6212506;23;20044;-65
2022/06/05 01:02:05;;;;;;;12.00;6.57;;;;;;;;;;6204235;22;20070;-65
2022/06/05 01:04:33;;;;;;;8.13;6.32;;;;;;;;;;6203806;23;20135;-65
2022/06/05 01:07:00;;;;;;;10.70;6.32;;;;;;;;;;6211670;23;20108;-66
2022/06/05 01:09:26;;;;;;;9.30;5.93;;;;;;;;;;6204545;23;20111;-65
2022/06/05 01:12:00;;;;;;;10.13;5.75;;;;;;;;;;6212675;23;20075;-67
2022/06/05 01:14:41;;;;;;;8.38;5.65;;;;;;;;;;6204537;23;20112;-65
2022/06/05 01:17:13;;;;;;;12.93;6.68;;;;;;;;;;6205938;23;20047;-66
2022/06/05 01:19:42;;;;;;;10.40;6.28;;;;;;;;;;6198569;23;20056;-66
2022/06/05 01:22:08;;;;;;;;;;;;;;;;;;6211688;23;20024;-65
2022/06/05 01:24:55;;;;;;;11.57;6.07;;;;;;;;;;6212311;23;19955;-65
2022/06/05 01:27:27;;;;;;;9.77;6.15;;;;;;;;;;6210979;23;20024;-66
2022/06/05 01:30:03;;;;;;;10.65;6.35;;;;;;;;;;6211564;23;20108;-66
2022/06/05 01:32:43;;;;;;;15.32;7.40;;;;;;;;;;6193832;23;20021;-66
2022/06/05 01:35:12;;;;;;;12.10;6.68;;;;;;;;;;6210766;23;20016;-66
2022/06/05 01:37:46;;;;;;;9.65;6.53;;;;;;;;;;6202727;23;20023;-65
2022/06/05 01:40:20;;;;;;;11.52;6.57;;;;;;;;;;6211080;23;20052;-66
2022/06/05 01:42:52;;;;;;;10.13;6.07;;;;;;;;;;6203597;23;20407;-65
2022/06/05 01:45:24;;;;;;;12.57;6.65;;;;;;;;;;6205523;23;20021;-65
2022/06/05 01:47:54;;;;;;;13.13;6.70;;;;;;;;;;6199388;23;20028;-66
2022/06/05 01:50:22;;;;;;;14.65;6.72;;;;;;;;;;6210599;23;20080;-66
2022/06/05 01:52:53;;;;;;;10.27;6.10;;;;;;;;;;6211430;23;20401;-66
2022/06/05 01:55:25;;;;;;;11.27;7.07;;;;;;;;;;6203192;23;20024;-66
2022/06/05 01:57:55;;;;;;;14.13;7.43;;;;;;;;;;6211674;23;20590;-67
2022/06/05 02:00:22;;;;;;;9.98;6.50;;;;;;;;;;6194241;23;20649;-66
2022/06/05 02:02:57;;;;;;;12.00;7.88;;;;;;;;;;6208640;23;20055;-66
2022/06/05 02:05:26;;;;;;;11.40;6.80;;;;;;;;;;6202841;23;20108;-65
2022/06/05 02:07:56;;;;;;;12.57;7.30;;;;;;;;;;6210753;23;20104;-66
2022/06/05 02:10:41;;;;;;;15.70;7.70;;;;;;;;;;6211017;23;20361;-66
2022/06/05 02:13:07;;;;;;;11.35;7.28;;;;;;;;;;6204596;23;20391;-65
2022/06/05 02:15:34;;;;;;;11.50;7.50;;;;;;;;;;6205407;23;20055;-66
2022/06/05 02:18:00;;;;;;;13.75;8.10;;;;;;;;;;6203099;23;20029;-66
2022/06/05 02:20:27;;;;;;;13.50;7.25;;;;;;;;;;6210858;23;20030;-65
2022/06/05 02:22:54;;;;;;;12.88;7.63;;;;;;;;;;6203629;22;20099;-65
2022/06/05 02:25:22;;;;;;;12.73;7.60;;;;;;;;;;6211005;23;20025;-67
2022/06/05 02:27:48;;;;;;;10.47;7.40;;;;;;;;;;6195316;22;20095;-65
2022/06/05 02:30:15;;;;;;;10.73;7.30;;;;;;;;;;6208093;23;20119;-66
2022/06/05 02:33:17;;;;;;;12.48;7.40;;;;;;;;;;6211372;23;20099;-67
2022/06/05 02:35:50;;;;;;;10.27;7.10;;;;;;;;;;6114236;23;20426;-65
2022/06/05 02:38:27;;;;;;;14.68;8.27;;;;;;;;;;6117976;23;20109;-65
2022/06/05 02:41:06;;;;;;;11.25;7.18;;;;;;;;;;6104913;23;20029;-65
2022/06/05 02:44:29;;;;;;;9.98;6.60;;;;;;;;;;6113129;23;20053;-66
2022/06/05 02:46:42;;;;;;;8.90;6.82;;;;;;;;;;6110708;23;20049;-66
2022/06/05 02:49:22;;;;;;;11.85;7.63;;;;;;;;;;6118461;23;20025;-66
2022/06/05 02:51:49;;;;;;;13.27;7.63;;;;;;;;;;6108753;23;20418;-66
2022/06/05 02:54:19;;;;;;;14.35;7.90;;;;;;;;;;6113061;23;20097;-66
2022/06/05 02:56:46;;;;;;;13.48;8.88;;;;;;;;;;6103646;23;20423;-66
2022/06/05 02:59:12;;;;;;;14.60;8.13;;;;;;;;;;6118027;23;20022;-66
2022/06/05 03:04:23;;;;;;;12.73;8.02;;;;;;;;;;6118098;23;20022;-66
2022/06/05 03:06:50;;;;;;;12.10;7.57;;;;;;;;;;6118567;23;20060;-66
2022/06/05 03:09:16;;;;;;;12.50;7.20;;;;;;;;;;6130464;23;20052;-66
2022/06/05 03:11:42;;;;;;;14.75;8.48;;;;;;;;;;6205081;23;20048;-66
2022/06/05 03:14:09;;;;;;;12.02;7.82;;;;;;;;;;6202570;23;20135;-66
2022/06/05 03:16:35;;;;;;;12.13;8.55;;;;;;;;;;6211205;23;20025;-66
2022/06/05 03:19:02;;;;;;;12.35;8.88;;;;;;;;;;6202947;23;20589;-65
2022/06/05 03:21:35;;;;;;;16.15;8.52;;;;;;;;;;6208879;23;20056;-66
2022/06/05 03:24:01;;;;;;;17.73;8.27;;;;;;;;;;6201808;23;20024;-66
2022/06/05 03:26:28;;;;;;;11.95;8.02;;;;;;;;;;6202303;22;20098;-66
2022/06/05 03:28:54;;;;;;;11.80;8.20;;;;;;;;;;6210064;23;20099;-66
2022/06/05 03:31:20;;;;;;;16.65;8.75;;;;;;;;;;6202476;22;20097;-66
2022/06/05 03:33:47;;;;;;;11.30;7.95;;;;;;;;;;6210546;23;20031;-65
2022/06/05 03:36:14;;;;;;;13.98;8.82;;;;;;;;;;6197070;23;20052;-66
2022/06/05 03:38:41;;;;;;;16.20;8.57;;;;;;;;;;6204731;23;20099;-66
2022/06/05 03:41:08;;;;;;;14.82;8.40;;;;;;;;;;6210073;23;20386;-65
2022/06/05 03:43:35;;;;;;;13.35;8.00;;;;;;;;;;6176736;23;20095;-68
2022/06/05 03:46:07;;;;;;;9.95;7.13;;;;;;;;;;6210608;23;20108;-66
2022/06/05 03:48:33;;;;;;;12.32;8.55;;;;;;;;;;6203162;22;20128;-65
2022/06/05 03:51:08;;;;;;;11.02;8.57;;;;;;;;;;6204840;23;20060;-65
2022/06/05 03:53:34;;;;;;;13.23;9.25;;;;;;;;;;6195306;23;20103;-65
2022/06/05 03:56:00;;;;;;;10.45;7.10;;;;;;;;;;6210610;23;20025;-66
2022/06/05 03:58:27;;;;;;;12.80;8.23;;;;;;;;;;6209486;23;20108;-65
2022/06/05 04:00:53;;;;;;;14.65;8.40;;;;;;;;;;6206034;23;20020;-66
2022/06/05 04:03:19;;;;;;;13.63;9.18;;;;;;;;;;6210708;23;20063;-66
2022/06/05 04:05:46;;;;;;;11.20;8.07;;;;;;;;;;6193761;22;20385;-66
2022/06/05 04:08:14;;;;;;;15.73;9.48;;;;;;;;;;6206844;23;20048;-66
2022/06/05 04:10:41;;;;;;;13.30;8.38;;;;;;;;;;6202954;23;20025;-66
2022/06/05 04:13:07;;;;;;;13.75;8.00;;;;;;;;;;6209524;23;20020;-66
2022/06/05 04:15:37;;;;;;;13.65;9.50;;;;;;;;;;6210207;23;20052;-66
2022/06/05 04:18:03;;;;;;;13.15;8.07;;;;;;;;;;6197146;23;20021;-66
2022/06/05 04:20:30;;;;;;;13.48;8.30;;;;;;;;;;6203600;23;20115;-66
2022/06/05 04:22:56;;;;;;;14.38;9.68;;;;;;;;;;6201386;23;20056;-65
2022/06/05 04:25:25;;;;;;;14.70;9.07;;;;;;;;;;6210069;23;20513;-66
2022/06/05 04:27:51;;;;;;;16.05;9.40;;;;;;;;;;6202121;23;20199;-66
2022/06/05 04:30:18;;;;;;;13.15;8.90;;;;;;;;;;6208904;23;20095;-66
2022/06/05 04:32:44;;;;;;;15.25;10.00;;;;;;;;;;6204627;23;20481;-65
2022/06/05 04:35:11;;;;;;;13.00;9.73;;;;;;;;;;6196855;23;20096;-66
2022/06/05 04:37:37;;;;;;;13.10;8.88;;;;;;;;;;6209400;23;20107;-66
2022/06/05 04:40:05;;;;;;;13.93;8.43;;;;;;;;;;6201489;23;20112;-65
2022/06/05 04:42:31;;;;;;;12.85;8.88;;;;;;;;;;6210692;23;20060;-65
2022/06/05 04:44:58;;;;;;;13.15;7.55;;;;;;;;;;6202749;23;20108;-66
2022/06/05 04:47:24;;;;;;;14.75;9.13;;;;;;;;;;6204041;23;20546;-65
2022/06/05 04:49:50;;;;;;;12.88;9.45;;;;;;;;;;6203909;23;20099;-67
2022/06/05 04:52:17;;;;;;;16.58;9.80;;;;;;;;;;6201335;23;20402;-66
2022/06/05 04:54:43;;;;;;;15.90;9.13;;;;;;;;;;6209940;23;20055;-66
2022/06/05 04:57:09;;;;;;;14.43;9.63;;;;;;;;;;6200286;23;20099;-66
2022/06/05 04:59:36;;;;;;;11.60;8.82;;;;;;;;;;6208779;23;20031;-66
2022/06/05 05:02:03;;;;;;;17.67;9.07;;;;;;;;;;6193383;23;20128;-66
2022/06/05 05:04:30;;;;;;;11.80;8.88;;;;;;;;;;6209372;23;20020;-66
2022/06/05 05:06:56;;;;;;;14.52;9.75;;;;;;;;;;6207147;23;20096;-65
2022/06/05 05:09:22;;;;;;;12.90;8.70;;;;;;;;;;6205947;23;20056;-66
2022/06/05 05:11:49;;;;;;;17.38;9.98;;;;;;;;;;6210559;23;20392;-65
2022/06/05 05:14:15;;;;;;;14.63;9.05;;;;;;;;;;6196398;23;20021;-65
2022/06/05 05:16:41;;;;;;;14.50;9.02;;;;;;;;;;6204504;23;20020;-65
2022/06/05 05:19:08;;;;;;;11.90;9.05;;;;;;;;;;6202370;23;20059;-66
2022/06/05 05:21:35;;;;;;;13.75;9.50;;;;;;;;;;6211234;23;20063;-65
2022/06/05 05:24:01;;;;;;;12.90;9.32;;;;;;;;;;6212665;23;20396;-65
2022/06/05 05:26:29;;;;;;;13.75;9.32;;;;;;;;;;6204413;22;20063;-65
2022/06/05 05:28:56;;;;;;;10.45;8.07;;;;;;;;;;6206549;23;20366;-65
2022/06/05 05:31:24;;;;;;;13.32;9.02;;;;;;;;;;6198902;22;20036;-66
2022/06/05 05:33:51;;;;;;;;;;;;;;;;;;6212612;23;20021;-66
2022/06/05 05:36:18;;;;;;;10.98;8.95;;;;;;;;;;6203968;23;19974;-66
2022/06/05 05:44:16;;;;;;;15.20;10.05;;;;;;;;;;6203139;23;20481;-66
2022/06/05 05:46:42;;;;;;;14.70;9.40;;;;;;;;;;6210864;23;20695;-66
2022/06/05 05:49:09;;;;;;;11.90;8.35;;;;;;;;;;6203398;23;20501;-66
2022/06/05 05:51:36;;;;;;;14.90;10.40;;;;;;;;;;6211924;23;20513;-66
2022/06/05 05:54:03;;;;;;;14.18;10.02;;;;;;;;;;6203313;23;20108;-66
2022/06/05 05:56:29;;;;;;;12.07;9.02;;;;;;;;;;6206646;23;20525;-65
2022/06/05 05:58:56;;;;;;;14.73;9.85;;;;;;;;;;6198391;22;20147;-65
2022/06/05 06:01:23;;;;;;;14.85;10.48;;;;;;;;;;6211149;23;20021;-66
2022/06/05 06:03:49;;;;;;;15.13;10.18;;;;;;;;;;6207834;23;20033;-65
2022/06/05 06:06:16;;;;;;;13.60;10.05;;;;;;;;;;6209789;23;20067;-65
2022/06/05 06:08:42;;;;;;;18.73;10.52;;;;;;;;;;6211440;23;20056;-65
2022/06/05 06:11:09;;;;;;;18.23;10.45;;;;;;;;;;6194670;23;20060;-65
2022/06/05 06:13:35;;;;;;;13.98;10.07;;;;;;;;;;6208121;23;20021;-65
2022/06/05 06:16:02;;;;;;;13.40;9.63;;;;;;;;;;6204092;23;20058;-66
2022/06/05 06:18:29;;;;;;;14.95;9.98;;;;;;;;;;6210524;23;20103;-65
2022/06/05 06:20:55;;;;;;;13.82;10.80;;;;;;;;;;6208483;23;20082;-65
2022/06/05 06:23:21;;;;;;;14.55;8.73;;;;;;;;;;6202282;23;20025;-66
2022/06/05 06:25:48;;;;;;;13.57;9.90;;;;;;;;;;6205351;23;20020;-66
2022/06/05 06:28:14;;;;;;;14.25;10.13;;;;;;;;;;6202055;23;20107;-66
2022/06/05 06:30:41;;;;;;;14.80;9.63;;;;;;;;;;6210950;23;20488;-66
2022/06/05 06:33:07;;;;;;;12.40;9.32;;;;;;;;;;6203511;23;20545;-66
2022/06/05 06:35:41;;;;;;;14.75;10.23;;;;;;;;;;6210647;23;20463;-66
2022/06/05 06:38:08;;;;;;;16.08;10.52;;;;;;;;;;6198258;23;20103;-65
2022/06/05 06:40:35;;;;;;;14.38;8.93;;;;;;;;;;6205246;23;20107;-66
2022/06/05 06:43:02;;;;;;;15.37;9.60;;;;;;;;;;6211641;23;20052;-66
2022/06/05 06:45:28;;;;;;;13.80;9.70;;;;;;;;;;6203624;22;20100;-65
2022/06/05 06:47:55;;;;;;;13.18;9.52;;;;;;;;;;6210858;23;20052;-66
2022/06/05 06:50:21;;;;;;;14.27;9.80;;;;;;;;;;6202550;23;20408;-66
2022/06/05 06:52:47;;;;;;;11.80;9.60;;;;;;;;;;6201911;23;20281;-66
2022/06/05 06:55:16;;;;;;;13.65;9.38;;;;;;;;;;6202400;23;20493;-67
2022/06/05 06:57:43;;;;;;;14.07;9.98;;;;;;;;;;6210240;23;20021;-67
2022/06/05 07:00:12;;;;;;;11.90;9.70;;;;;;;;;;6210885;23;20509;-67
2022/06/05 07:02:39;;;;;;;11.48;9.60;;;;;;;;;;6203571;23;20103;-65
2022/06/05 07:05:05;;;;;;;12.90;9.90;;;;;;;;;;6205711;23;20020;-66
2022/06/05 07:07:31;;;;;;;14.35;9.63;;;;;;;;;;6197069;23;20021;-66
2022/06/05 07:09:58;;;;;;;12.90;10.48;;;;;;;;;;6210497;23;20111;-66
2022/06/05 07:12:24;;;;;;;11.93;9.57;;;;;;;;;;6203164;23;20111;-66
2022/06/05 07:14:50;;;;;;;11.23;8.27;;;;;;;;;;6211224;23;20103;-66
2022/06/05 07:17:17;;;;;;;12.20;9.07;;;;;;;;;;6210162;23;20104;-66
2022/06/05 07:19:43;;;;;;;11.55;9.23;;;;;;;;;;6196057;22;20027;-67
2022/06/05 07:22:09;;;;;;;10.40;8.18;;;;;;;;;;6203945;23;20021;-66
2022/06/05 07:24:36;;;;;;;12.13;8.82;;;;;;;;;;6203102;23;20104;-66
2022/06/05 07:27:02;;;;;;;14.85;9.45;;;;;;;;;;6211203;23;20111;-66
2022/06/05 07:29:28;;;;;;;9.93;8.40;;;;;;;;;;6201356;23;20516;-66
2022/06/05 07:31:55;;;;;;;11.00;8.63;;;;;;;;;;6209910;23;20115;-66
2022/06/05 07:34:21;;;;;;;13.65;8.90;;;;;;;;;;6202834;23;20362;-66
2022/06/05 07:36:48;;;;;;;12.13;7.97;;;;;;;;;;6198338;23;20107;-66
2022/06/05 07:39:14;;;;;;;9.43;7.40;;;;;;;;;;6209869;23;20136;-65
2022/06/05 07:41:40;;;;;;;11.57;8.23;;;;;;;;;;6201926;23;20108;-66
2022/06/05 07:44:07;;;;;;;13.95;8.60;;;;;;;;;;6183590;23;20398;-66
2022/06/05 07:46:35;;;;;;;9.40;7.50;;;;;;;;;;6200196;23;21014;-66
2022/06/05 07:49:01;;;;;;;12.55;7.90;;;;;;;;;;6201654;23;20043;-66
2022/06/05 07:54:27;;;;;;;9.65;7.32;;;;;;;;;;6202537;23;20100;-66
2022/06/05 07:57:02;;;;;;;13.15;8.23;;;;;;;;;;6210358;23;20438;-66
2022/06/05 07:59:29;;;;;;;12.35;8.13;;;;;;;;;;6202050;23;20135;-66
2022/06/05 08:02:00;;;;;;;10.88;8.30;;;;;;;;;;6201429;23;20025;-66
2022/06/05 08:04:27;;;;;;;11.10;7.82;;;;;;;;;;6201113;23;20047;-66
2022/06/05 08:06:54;;;;;;;9.18;7.10;;;;;;;;;;6210240;23;20024;-67
2022/06/05 08:09:21;;;;;;;9.60;7.70;;;;;;;;;;6202231;23;20025;-66
2022/06/05 08:11:47;;;;;;;9.93;7.53;;;;;;;;;;6209419;23;20069;-66
2022/06/05 08:14:14;;;;;;;9.77;7.60;;;;;;;;;;6205343;23;20127;-66
2022/06/05 08:16:43;;;;;;;9.98;7.85;;;;;;;;;;6194733;22;20020;-66
2022/06/05 08:19:11;;;;;;;12.52;7.63;;;;;;;;;;6209597;23;20024;-66
2022/06/05 08:21:39;;;;;;;11.20;7.50;;;;;;;;;;6174779;23;20021;-66
2022/06/05 08:24:06;;;;;;;8.30;7.03;;;;;;;;;;6210687;23;20445;-66
2022/06/05 08:26:32;;;;;;;8.95;7.82;;;;;;;;;;6202257;23;20025;-66
2022/06/05 08:28:59;;;;;;;8.95;6.57;;;;;;;;;;6199863;23;20024;-66
2022/06/05 08:31:25;;;;;;;10.05;7.70;;;;;;;;;;6181079;23;20056;-66
2022/06/05 08:33:51;;;;;;;10.48;7.28;;;;;;;;;;6202493;23;20021;-66
2022/06/05 08:36:18;;;;;;;11.15;7.20;;;;;;;;;;6209456;23;20104;-66
2022/06/05 08:41:37;;;;;;;9.38;7.85;;;;;;;;;;6204261;23;20055;-66
2022/06/05 08:44:09;;;;;;;9.60;8.32;;;;;;;;;;6196652;23;20100;-66
2022/06/05 08:46:56;;;;;;;10.55;8.07;;;;;;;;;;6211334;23;20044;-67
2022/06/05 08:49:34;;;;;;;8.53;7.57;;;;;;;;;;6186903;22;20103;-66
2022/06/05 08:52:20;;;;;;;10.32;7.15;;;;;;;;;;6210948;23;20393;-67
2022/06/05 08:55:00;;;;;;;11.00;7.95;;;;;;;;;;6203883;23;20051;-66
2022/06/05 08:57:34;;;;;;;9.82;8.00;;;;;;;;;;6202359;23;20108;-67
2022/06/05 09:00:10;;;;;;;9.55;7.78;;;;;;;;;;6211869;23;20135;-66
2022/06/05 09:02:40;;;;;;;11.45;7.90;;;;;;;;;;6205230;23;20025;-67
2022/06/05 09:05:12;;;;;;;10.52;6.47;;;;;;;;;;6212195;23;20399;-66
2022/06/05 09:07:42;;;;;;;10.02;6.75;;;;;;;;;;6205478;22;20099;-66
2022/06/05 09:10:23;;;;;;;10.48;8.15;;;;;;;;;;6206461;23;20055;-66
2022/06/05 09:13:25;;;;;;;10.35;7.53;;;;;;;;;;6202621;23;20064;-66
2022/06/05 09:16:02;;;;;;;10.00;7.50;;;;;;;;;;6120244;23;20100;-67
2022/06/05 09:18:35;;;;;;;10.50;7.57;;;;;;;;;;6192917;23;20032;-67
2022/06/05 09:21:05;;;;;;;9.02;7.38;;;;;;;;;;6213030;23;20096;-67
2022/06/05 09:23:38;;;;;;;7.97;6.63;;;;;;;;;;6197902;23;20055;-67
2022/06/05 09:26:09;;;;;;;8.88;6.95;;;;;;;;;;6206167;23;20481;-67
2022/06/05 09:28:47;;;;;;;8.55;6.88;;;;;;;;;;6211783;23;20388;-67
2022/06/05 09:31:22;;;;;;;9.05;6.95;;;;;;;;;;6208706;23;20027;-67
2022/06/05 09:33:51;;;;;;;10.13;7.20;;;;;;;;;;6211590;23;20442;-67
2022/06/05 09:36:18;;;;;;;8.90;6.20;;;;;;;;;;6200881;23;20027;-66
2022/06/05 09:38:46;;;;;;;9.63;6.10;;;;;;;;;;6205162;23;20123;-66
2022/06/05 09:41:27;;;;;;;8.05;6.07;;;;;;;;;;6202491;23;20349;-66
2022/06/05 09:44:13;;;;;;;8.80;5.60;;;;;;;;;;6211438;23;20091;-66
2022/06/05 09:46:52;;;;;;;8.00;6.18;;;;;;;;;;6203604;23;20458;-67
2022/06/05 09:49:22;;;;;;;7.20;6.50;;;;;;;;;;6208382;23;20016;-67
2022/06/05 09:51:48;;;;;;;11.35;6.97;;;;;;;;;;6195837;23;20103;-67
2022/06/05 09:54:14;;;;;;;6.80;5.88;;;;;;;;;;6210523;23;20721;-67
2022/06/05 09:59:45;;;;;;;6.70;6.00;;;;;;;;;;6210570;23;20494;-67
2022/06/05 10:02:15;;;;;;;7.10;6.40;;;;;;;;;;6211271;23;20373;-68
2022/06/05 10:04:41;;;;;;;9.18;6.60;;;;;;;;;;6195869;23;20048;-67
2022/06/05 10:07:30;;;;;;;8.20;5.40;;;;;;;;;;6206425;23;20028;-67
2022/06/05 10:09:57;;;;;;;9.63;7.07;;;;;;;;;;6203032;22;20074;-66
2022/06/05 10:12:25;;;;;;;10.52;5.90;;;;;;;;;;6211282;23;20021;-67
2022/06/05 10:15:00;;;;;;;10.13;5.55;;;;;;;;;;6203893;23;20023;-67
2022/06/05 10:17:42;;;;;;;8.15;6.47;;;;;;;;;;6206248;23;20194;-67
2022/06/05 10:20:08;;;;;;;7.50;5.70;;;;;;;;;;6196824;23;20095;-66
2022/06/05 10:22:42;;;;;;;8.20;6.03;;;;;;;;;;6210558;23;20108;-67
2022/06/05 10:25:30;;;;;;;6.75;5.70;;;;;;;;;;6211134;23;20493;-67
2022/06/05 10:27:59;;;;;;;7.35;5.88;;;;;;;;;;6204199;23;20059;-67
2022/06/05 10:30:30;;;;;;;7.63;6.00;;;;;;;;;;6211500;23;20776;-66
2022/06/05 10:33:01;;;;;;;7.40;6.70;;;;;;;;;;6197703;22;20024;-67
2022/06/05 10:35:34;;;;;;;12.50;8.00;;;;;;;;;;6206278;23;20096;-67
2022/06/05 10:38:09;;;;;;;13.15;8.82;;;;;;;;;;6203754;23;20176;-67
2022/06/05 10:40:41;;;;;;;7.80;6.20;;;;;;;;;;6212234;23;20506;-67
2022/06/05 10:43:15;;;;;;;8.18;5.75;;;;;;;;;;6203606;23;20999;-66
2022/06/05 10:45:49;;;;;;;7.32;5.85;;;;;;;;;;6205558;23;20350;-67
2022/06/05 10:48:22;;;;;;;8.25;6.25;;;;;;;;;;6205329;23;20027;-67
2022/06/05 10:50:55;;;;;;;18.08;7.25;;;;;;;;;;6202603;23;20178;-67
2022/06/05 10:53:27;;;;;;;10.43;6.13;;;;;;;;;;6211991;23;20099;-67
2022/06/05 10:56:13;;;;;;;26.30;5.75;;;;;;;;;;6203807;23;20062;-66
2022/06/05 10:58:55;;;;;;;8.25;6.30;;;;;;;;;;6211669;23;20063;-66
2022/06/05 11:01:35;;;;;;;9.13;5.37;;;;;;;;;;6193152;23;20033;-66
2022/06/05 11:04:20;;;;;;;7.72;6.38;;;;;;;;;;6210858;23;20024;-66
2022/06/05 11:06:52;;;;;;;7.60;6.80;;;;;;;;;;6203583;23;20025;-67
2022/06/05 11:09:18;;;;;;;6.90;6.00;;;;;;;;;;6210936;23;20027;-67
2022/06/05 11:14:40;;;;;;;8.68;6.10;;;;;;;;;;6204790;23;20067;-66
2022/06/05 11:17:28;;;;;;;22.70;7.30;;;;;;;;;;6197469;23;20024;-67
2022/06/05 11:20:03;;;;;;;13.50;6.63;;;;;;;;;;6210184;23;20384;-67
2022/06/05 11:22:29;;;;;;;22.10;6.93;;;;;;;;;;6208823;23;20075;-67
2022/06/05 11:24:57;;;;;;;12.88;6.45;;;;;;;;;;6204665;23;20107;-67
2022/06/05 11:27:47;;;;;;;8.90;6.50;;;;;;;;;;6207546;23;20083;-67
2022/06/05 11:30:39;;;;;;;8.35;6.43;;;;;;;;;;6196363;23;20021;-67
2022/06/05 11:33:18;;;;;;;7.97;6.55;;;;;;;;;;6207338;23;20021;-67
2022/06/05 11:35:54;;;;;;;10.65;6.63;;;;;;;;;;6202654;22;20091;-67
2022/06/05 11:38:35;;;;;;;8.00;6.55;;;;;;;;;;6210993;23;20084;-67
2022/06/05 11:41:17;;;;;;;8.30;5.97;;;;;;;;;;6204265;22;20060;-67
2022/06/05 11:43:44;;;;;;;8.35;6.15;;;;;;;;;;6202913;23;20057;-67
2022/06/05 11:46:33;;;;;;;10.88;7.75;;;;;;;;;;6202253;23;20023;-67
2022/06/05 11:49:06;;;;;;;10.35;6.53;;;;;;;;;;6211287;23;20448;-67
2022/06/05 11:51:39;;;;;;;8.23;7.00;;;;;;;;;;6203103;23;20048;-66
2022/06/05 11:54:05;;;;;;;8.27;6.97;;;;;;;;;;6211474;23;20104;-68
2022/06/05 11:56:34;;;;;;;9.07;7.47;;;;;;;;;;6205884;23;20031;-67
2022/06/05 11:59:13;;;;;;;9.60;7.43;;;;;;;;;;6197873;23;20025;-68
2022/06/05 12:01:44;;;;;;;12.18;7.18;;;;;;;;;;6211182;23;20021;-67
2022/06/05 12:04:15;;;;;;;8.40;7.57;;;;;;;;;;6202935;23;20025;-67
2022/06/05 12:06:44;;;;;;;9.30;7.30;;;;;;;;;;6211204;23;20059;-67
2022/06/05 12:09:13;;;;;;;10.00;7.18;;;;;;;;;;6200054;23;20024;-67
2022/06/05 12:11:47;;;;;;;8.98;7.70;;;;;;;;;;6201114;23;20538;-67
2022/06/05 12:14:24;;;;;;;9.15;8.18;;;;;;;;;;6202220;23;21104;-67
2022/06/05 12:17:01;;;;;;;8.73;7.82;;;;;;;;;;6210687;23;20029;-66
2022/06/05 12:19:47;;;;;;;8.88;7.93;;;;;;;;;;6208948;23;20099;-66
2022/06/05 12:22:32;;;;;;;10.50;9.43;;;;;;;;;;6210226;23;20020;-67
2022/06/05 12:25:17;;;;;;;11.05;9.95;;;;;;;;;;6205307;23;20102;-67
2022/06/05 12:27:44;;;;;;;10.85;9.75;;;;;;;;;;6181505;23;20084;-66
2022/06/05 12:30:23;;;;;;;11.55;10.38;;;;;;;;;;6210101;23;20044;-66
2022/06/05 12:32:54;;;;;;;12.18;10.68;;;;;;;;;;6204184;23;20032;-67
2022/06/05 12:35:25;;;;;;;10.50;9.50;;;;;;;;;;6212807;23;20048;-66
2022/06/05 12:38:11;;;;;;;12.35;11.10;;;;;;;;;;6199428;22;20103;-67
2022/06/05 12:40:40;;;;;;;13.38;12.13;;;;;;;;;;6207106;23;20076;-66
2022/06/05 12:43:12;;;;;;;12.00;10.85;;;;;;;;;;6205127;23;20035;-65
2022/06/05 12:45:41;;;;;;;14.13;12.73;;;;;;;;;;6213174;23;20021;-66
2022/06/05 12:48:07;;;;;;;15.70;14.18;;;;;;;;;;6179034;23;20468;-65
2022/06/05 12:50:57;;;;;;;15.65;14.15;;;;;;;;;;6211946;23;20056;-66
2022/06/05 12:53:40;;;;;;;15.25;13.70;;;;;;;;;;6204612;23;20462;-66
2022/06/05 12:56:25;;;;;;;15.80;14.23;;;;;;;;;;6207205;23;20103;-65
2022/06/05 12:59:10;;;;;;;14.32;12.82;;;;;;;;;;6212591;23;20031;-67
2022/06/05 13:01:39;;;;;;;14.80;13.30;;;;;;;;;;6205449;22;20020;-66
2022/06/05 13:04:06;;;;;;;15.52;14.00;;;;;;;;;;6213982;23;20020;-66
2022/06/05 13:06:51;;;;;;;14.10;12.80;;;;;;;;;;6172493;23;20082;-66
2022/06/05 13:09:21;;;;;;;14.52;13.13;;;;;;;;;;6206574;23;20383;-66
2022/06/05 13:11:50;;;;;;;14.10;12.70;;;;;;;;;;6204318;23;20107;-66
2022/06/05 13:14:16;;;;;;;14.20;12.70;;;;;;;;;;6212479;23;20530;-67
2022/06/05 13:16:58;;;;;;;13.18;11.85;;;;;;;;;;6206133;23;20021;-66
2022/06/05 13:19:27;;;;;;;14.27;12.77;;;;;;;;;;6209588;23;20521;-66
2022/06/05 13:22:03;;;;;;;14.13;12.80;;;;;;;;;;6203959;23;20021;-66
2022/06/05 13:24:49;;;;;;;15.68;13.32;;;;;;;;;;6205112;22;20020;-66
2022/06/05 13:27:22;;;;;;;12.07;10.50;;;;;;;;;;6212158;23;20069;-66
2022/06/05 13:29:54;;;;;;;16.45;13.82;;;;;;;;;;6204664;22;20114;-67
2022/06/05 13:32:35;;;;;;;15.50;14.07;;;;;;;;;;6212516;23;20025;-67
2022/06/05 13:35:24;;;;;;;15.73;14.23;;;;;;;;;;6199089;23;20450;-66
2022/06/05 13:38:02;;;;;;;14.32;12.70;;;;;;;;;;6208945;23;20470;-66
2022/06/05 13:40:51;;;;;;;13.55;11.95;;;;;;;;;;6203270;23;20394;-66
2022/06/05 13:43:20;;;;;;;14.02;12.48;;;;;;;;;;6212256;23;20059;-65
2022/06/05 13:46:01;;;;;;;16.58;12.90;;;;;;;;;;6204965;23;20099;-66
2022/06/05 13:48:44;;;;;;;14.45;11.68;;;;;;;;;;6207216;23;20361;-65
2022/06/05 13:51:14;;;;;;;11.18;10.00;;;;;;;;;;6199404;23;20027;-66
2022/06/05 13:53:43;;;;;;;13.07;11.73;;;;;;;;;;6213125;23;20139;-66
2022/06/05 13:56:22;;;;;;;12.45;10.60;;;;;;;;;;6212803;23;20042;-65
2022/06/05 13:58:57;;;;;;;12.85;11.55;;;;;;;;;;6211086;23;20020;-66
2022/06/05 14:01:29;;;;;;;13.88;10.93;;;;;;;;;;6209916;23;20099;-65
2022/06/05 14:03:57;;;;;;;11.68;9.63;;;;;;;;;;6197909;23;20016;-66
2022/06/05 14:06:37;;;;;;;7.68;6.07;;;;;;;;;;6211908;23;20078;-66
2022/06/05 14:09:03;;;;;;;7.72;5.38;;;;;;;;;;6206140;23;20025;-68
2022/06/05 14:11:35;;;;;;;12.38;5.50;;;;;;;;;;6211762;23;20027;-67
2022/06/05 14:14:05;;;;;;;8.82;5.03;;;;;;;;;;6204985;23;20040;-68
2022/06/05 14:16:38;;;;;;;8.73;4.40;;;;;;;;;;6206840;23;20060;-66
2022/06/05 14:19:16;;;;;;;6.88;3.55;;;;;;;;;;6206648;23;20643;-66
2022/06/05 14:21:43;;;;;;;6.25;3.60;;;;;;;;;;6211885;23;20183;-67
2022/06/05 14:24:26;;;;;;;5.38;3.22;;;;;;;;;;6212666;23;20021;-67
2022/06/05 14:26:53;;;;;;;;;;;;;;;;;;6205315;23;20064;-67
2022/06/05 14:29:24;;;;;;;5.60;3.90;;;;;;;;;;6210166;23;19965;-67
2022/06/05 14:32:11;;;;;;;7.55;4.22;;;;;;;;;;6196715;23;20044;-67
2022/06/05 14:34:40;;;;;;;5.80;3.88;;;;;;;;;;6211431;23;20504;-67
2022/06/05 14:37:24;;;;;;;8.50;4.55;;;;;;;;;;6203422;23;20024;-65
2022/06/05 14:39:53;;;;;;;5.18;4.35;;;;;;;;;;6212001;23;20087;-65
2022/06/05 14:42:19;;;;;;;6.93;4.13;;;;;;;;;;6202897;23;20061;-66
2022/06/05 14:44:52;;;;;;;6.18;4.13;;;;;;;;;;6205883;23;20021;-67
2022/06/05 14:47:27;;;;;;;6.68;4.07;;;;;;;;;;6205893;23;20418;-67
2022/06/05 14:49:56;;;;;;;11.45;4.35;;;;;;;;;;6203585;23;20107;-67
2022/06/05 14:52:40;;;;;;;8.07;4.20;;;;;;;;;;6211672;23;20032;-67
2022/06/05 14:58:24;;;;;;;9.73;4.68;;;;;;;;;;6137828;23;20021;-66
2022/06/05 15:01:23;;;;;;;8.35;3.80;;;;;;;;;;6201360;23;20462;-67
2022/06/05 15:03:54;;;;;;;7.25;3.33;;;;;;;;;;6161326;23;20020;-66
2022/06/05 15:06:30;;;;;;;6.18;2.70;;;;;;;;;;6203177;23;20020;-67
2022/06/05 15:09:03;;;;;;;5.60;2.70;;;;;;;;;;6185176;23;20521;-67
2022/06/05 15:11:30;;;;;;;11.38;2.90;;;;;;;;;;6197369;23;20353;-67
2022/06/05 15:14:03;;;;;;;4.88;2.90;;;;;;;;;;6205244;23;20024;-67
2022/06/05 15:16:40;;;;;;;7.97;2.80;;;;;;;;;;6204399;23;20091;-67
2022/06/05 15:19:14;;;;;;;4.78;2.90;;;;;;;;;;6210389;23;20060;-67
2022/06/05 15:21:48;;;;;;;5.63;2.75;;;;;;;;;;6210924;23;20059;-67